createdAt,value
2023-05-19T00:01:48.264Z,21.23
2023-05-19T00:04:18.318Z,21.23
2023-05-19T00:06:52.151Z,21.42
2023-05-19T00:09:21.954Z,21.43
2023-05-19T00:11:51.578Z,21.37
2023-05-19T00:14:21.189Z,21.29
2023-05-19T00:16:52.349Z,21.34
2023-05-19T00:19:22.192Z,21.28
2023-05-19T00:21:51.441Z,21.27
2023-05-19T00:24:20.432Z,21.26
2023-05-19T00:26:49.545Z,21.36
2023-05-19T00:29:19.267Z,21.33
2023-05-19T00:31:48.533Z,21.29
2023-05-19T00:34:18.858Z,21.13
2023-05-19T00:36:47.997Z,21.19
2023-05-19T00:39:20.004Z,21.03
2023-05-19T00:41:49.032Z,20.97
2023-05-19T00:44:18.324Z,21.10
2023-05-19T00:46:47.398Z,21.03
2023-05-19T00:49:18.546Z,21.07
2023-05-19T00:51:47.632Z,20.92
2023-05-19T00:54:17.687Z,21.08
2023-05-19T00:56:46.897Z,20.92
2023-05-19T00:59:15.858Z,20.99
2023-05-19T01:01:45.876Z,20.96
2023-05-19T01:04:17.094Z,21.01
2023-05-19T01:06:48.503Z,21.06
2023-05-19T01:09:18.579Z,20.92
2023-05-19T01:11:47.598Z,20.96
2023-05-19T01:14:17.234Z,20.93
2023-05-19T01:16:51.818Z,21.05
2023-05-19T01:19:39.304Z,20.89
2023-05-19T01:22:23.092Z,21.03
2023-05-19T01:25:33.622Z,20.93
2023-05-19T01:28:51.485Z,20.83
2023-05-19T01:31:24.771Z,20.86
2023-05-19T01:33:54.745Z,20.60
2023-05-19T01:36:24.557Z,20.72
2023-05-19T01:38:57.856Z,20.51
2023-05-19T01:41:28.561Z,20.42
2023-05-19T01:43:59.118Z,20.50
2023-05-19T01:46:29.483Z,20.47
2023-05-19T01:48:59.086Z,20.63
2023-05-19T01:51:29.283Z,20.49
2023-05-19T01:53:58.280Z,20.55
2023-05-19T01:56:39.504Z,20.58
2023-05-19T01:59:23.245Z,20.47
2023-05-19T02:01:58.549Z,20.49
2023-05-19T02:04:40.098Z,20.41
2023-05-19T02:07:15.859Z,20.50
2023-05-19T02:09:52.720Z,20.42
2023-05-19T02:12:27.559Z,20.32
2023-05-19T02:15:04.868Z,20.26
2023-05-19T02:17:38.107Z,20.30
2023-05-19T02:20:08.952Z,20.22
2023-05-19T02:22:39.008Z,20.26
2023-05-19T02:25:09.740Z,20.05
2023-05-19T02:27:40.086Z,20.16
2023-05-19T02:30:10.616Z,20.06
2023-05-19T02:32:41.185Z,20.39
2023-05-19T02:35:11.730Z,20.27
2023-05-19T02:37:41.864Z,20.10
2023-05-19T02:40:11.377Z,20.03
2023-05-19T02:42:40.523Z,20.19
2023-05-19T02:45:10.230Z,20.28
2023-05-19T02:47:41.581Z,20.35
2023-05-19T02:50:11.050Z,20.24
2023-05-19T02:52:39.971Z,20.23
2023-05-19T02:55:09.838Z,20.25
2023-05-19T02:57:38.764Z,20.41
2023-05-19T03:00:09.481Z,20.57
2023-05-19T03:02:38.678Z,20.47
2023-05-19T03:05:10.397Z,20.39
2023-05-19T03:07:39.306Z,20.14
2023-05-19T03:10:09.913Z,20.56
2023-05-19T03:12:38.992Z,20.53
2023-05-19T03:15:09.134Z,20.45
2023-05-19T03:17:38.113Z,20.60
2023-05-19T03:20:10.904Z,20.55
2023-05-19T03:22:39.850Z,20.49
2023-05-19T03:25:09.383Z,20.32
2023-05-19T03:27:38.384Z,20.66
2023-05-19T03:30:10.838Z,20.54
2023-05-19T03:32:55.533Z,20.59
2023-05-19T03:35:25.852Z,20.45
2023-05-19T03:37:55.021Z,19.99
2023-05-19T03:40:24.095Z,20.26
2023-05-19T03:42:58.688Z,20.02
2023-05-19T03:45:27.754Z,20.43
2023-05-19T03:47:57.197Z,20.60
2023-05-19T03:50:50.572Z,20.64
2023-05-19T03:53:25.211Z,20.61
2023-05-19T03:55:56.764Z,20.40
2023-05-19T03:58:26.954Z,20.53
2023-05-19T04:01:08.612Z,20.56
2023-05-19T04:03:38.175Z,20.69
2023-05-19T04:06:09.044Z,20.87
2023-05-19T04:08:37.999Z,20.67
2023-05-19T04:11:06.978Z,20.36
2023-05-19T04:13:36.386Z,20.33
2023-05-19T04:16:06.168Z,20.68
2023-05-19T04:18:35.269Z,20.59
2023-05-19T04:21:04.509Z,20.63
2023-05-19T04:23:35.989Z,20.78
2023-05-19T04:26:06.792Z,20.71
2023-05-19T04:28:39.008Z,20.67
2023-05-19T04:31:10.991Z,20.65
2023-05-19T04:33:40.808Z,20.70
2023-05-19T04:36:11.537Z,20.54
2023-05-19T04:38:46.761Z,20.77
2023-05-19T04:41:16.578Z,20.85
2023-05-19T04:43:48.449Z,20.87
2023-05-19T04:46:17.868Z,20.55
2023-05-19T04:48:47.867Z,20.60
2023-05-19T04:51:17.784Z,20.61
2023-05-19T04:53:49.238Z,20.75
2023-05-19T04:56:18.232Z,20.74
2023-05-19T04:58:47.497Z,20.61
2023-05-19T05:01:17.006Z,20.90
2023-05-19T05:03:46.111Z,20.71
2023-05-19T05:06:15.252Z,20.90
2023-05-19T05:08:44.186Z,21.13
2023-05-19T05:11:15.634Z,21.21
2023-05-19T05:13:45.350Z,20.90
2023-05-19T05:16:16.829Z,20.99
2023-05-19T05:18:47.007Z,21.08
2023-05-19T05:21:16.776Z,21.28
2023-05-19T05:23:46.367Z,20.89
2023-05-19T05:26:19.850Z,20.90
2023-05-19T05:28:51.287Z,20.90
2023-05-19T05:31:21.395Z,20.81
2023-05-19T05:33:50.736Z,21.16
2023-05-19T05:36:23.212Z,21.27
2023-05-19T05:38:52.179Z,21.33
2023-05-19T05:41:22.941Z,21.43
2023-05-19T05:43:54.257Z,21.26
2023-05-19T05:46:23.417Z,21.41
2023-05-19T05:48:53.212Z,21.39
2023-05-19T05:51:23.712Z,21.27
2023-05-19T05:53:54.217Z,21.20
2023-05-19T05:56:29.753Z,21.26
2023-05-19T05:58:58.936Z,21.41
2023-05-19T06:01:28.255Z,21.31
2023-05-19T06:03:59.523Z,21.50
2023-05-19T06:06:31.390Z,21.51
2023-05-19T06:09:01.927Z,21.60
2023-05-19T06:11:33.488Z,21.82
2023-05-19T06:14:05.902Z,21.67
2023-05-19T06:16:56.881Z,21.79
2023-05-19T06:19:37.024Z,21.52
2023-05-19T06:22:12.193Z,21.80
2023-05-19T06:24:41.697Z,21.71
2023-05-19T06:27:13.351Z,21.78
2023-05-19T06:29:42.287Z,21.98
2023-05-19T06:32:11.685Z,22.03
2023-05-19T06:34:42.283Z,21.90
2023-05-19T06:37:11.932Z,22.23
2023-05-19T06:39:41.409Z,22.33
2023-05-19T06:42:10.765Z,21.77
2023-05-19T06:45:01.110Z,22.19
2023-05-19T06:47:31.090Z,22.42
2023-05-19T06:50:00.616Z,22.62
2023-05-19T06:52:33.999Z,22.79
2023-05-19T06:55:04.107Z,22.91
2023-05-19T06:57:34.284Z,23.44
2023-05-19T07:00:07.018Z,23.81
2023-05-19T07:02:36.526Z,23.80
2023-05-19T07:05:11.249Z,24.20
2023-05-19T07:07:40.295Z,23.57
2023-05-19T07:10:15.173Z,23.96
2023-05-19T07:12:44.889Z,23.81
2023-05-19T07:15:16.032Z,24.03
2023-05-19T07:17:46.521Z,24.27
2023-05-19T07:20:15.713Z,24.06
2023-05-19T07:22:44.695Z,23.58
2023-05-19T07:25:14.240Z,24.04
2023-05-19T07:27:43.333Z,24.02
2023-05-19T07:30:13.511Z,24.73
2023-05-19T07:32:44.982Z,24.16
2023-05-19T07:35:18.985Z,24.88
2023-05-19T07:37:48.388Z,24.24
2023-05-19T07:40:17.824Z,25.32
2023-05-19T07:42:46.824Z,25.28
2023-05-19T07:45:16.991Z,26.10
2023-05-19T07:47:47.621Z,25.09
2023-05-19T07:50:17.063Z,25.32
2023-05-19T07:52:46.242Z,25.98
2023-05-19T07:55:15.324Z,25.84
2023-05-19T07:57:46.768Z,24.81
2023-05-19T08:00:17.047Z,25.54
2023-05-19T08:02:50.151Z,25.27
2023-05-19T08:05:19.563Z,25.72
2023-05-19T08:07:48.833Z,26.10
2023-05-19T08:10:18.070Z,25.49
2023-05-19T08:12:47.661Z,25.76
2023-05-19T08:15:16.916Z,24.34
2023-05-19T08:17:47.550Z,25.01
2023-05-19T08:20:17.198Z,25.74
2023-05-19T08:22:47.092Z,26.09
2023-05-19T08:25:16.202Z,26.40
2023-05-19T08:27:45.071Z,26.66
2023-05-19T08:30:14.546Z,26.66
2023-05-19T08:32:43.744Z,25.80
2023-05-19T08:35:14.284Z,26.33
2023-05-19T08:37:43.513Z,25.70
2023-05-19T08:40:19.370Z,25.65
2023-05-19T08:42:50.283Z,25.83
2023-05-19T08:45:19.551Z,25.66
2023-05-19T08:47:48.814Z,25.11
2023-05-19T08:50:24.972Z,25.64
2023-05-19T08:52:58.013Z,25.53
2023-05-19T08:55:34.007Z,25.49
2023-05-19T08:58:05.331Z,25.57
2023-05-19T09:00:35.286Z,26.48
2023-05-19T09:03:17.428Z,25.40
2023-05-19T09:05:53.874Z,25.93
2023-05-19T09:08:23.239Z,25.83
2023-05-19T09:10:52.171Z,26.24
2023-05-19T09:13:21.082Z,27.10
2023-05-19T09:15:51.643Z,27.37
2023-05-19T09:18:21.141Z,28.03
2023-05-19T09:20:50.248Z,28.09
2023-05-19T09:23:21.175Z,28.08
2023-05-19T09:25:51.032Z,26.90
2023-05-19T09:28:28.120Z,27.60
2023-05-19T09:31:04.211Z,26.73
2023-05-19T09:33:35.622Z,28.61
2023-05-19T09:36:06.256Z,28.37
2023-05-19T09:38:40.057Z,28.59
2023-05-19T09:41:09.920Z,27.49
2023-05-19T09:43:39.047Z,27.98
2023-05-19T09:46:11.240Z,27.61
2023-05-19T09:48:42.734Z,27.61
2023-05-19T09:51:11.788Z,28.03
2023-05-19T09:53:44.929Z,27.99
2023-05-19T09:56:16.334Z,27.86
2023-05-19T09:58:45.469Z,28.21
2023-05-19T10:01:15.158Z,26.81
2023-05-19T10:03:45.654Z,27.64
2023-05-19T10:06:16.780Z,28.26
2023-05-19T10:08:49.419Z,28.27
2023-05-19T10:11:19.290Z,29.27
2023-05-19T10:13:52.094Z,27.44
2023-05-19T10:16:23.285Z,29.30
2023-05-19T10:18:54.424Z,28.93
2023-05-19T10:21:23.750Z,29.47
2023-05-19T10:23:54.443Z,29.64
2023-05-19T10:26:24.816Z,31.01
2023-05-19T10:28:54.215Z,30.60
2023-05-19T10:31:25.834Z,33.79
2023-05-19T10:34:09.708Z,34.51
2023-05-19T10:36:47.800Z,33.12
2023-05-19T10:39:27.933Z,31.26
2023-05-19T10:42:09.007Z,32.65
2023-05-19T10:44:54.530Z,30.25
2023-05-19T10:47:26.415Z,29.88
2023-05-19T10:49:55.907Z,28.55
2023-05-19T10:52:29.740Z,28.05
2023-05-19T10:55:00.175Z,27.77
2023-05-19T10:57:31.992Z,27.40
2023-05-19T11:00:01.551Z,28.77
2023-05-19T11:02:41.944Z,27.25
2023-05-19T11:05:13.016Z,27.37
2023-05-19T11:07:46.059Z,28.74
2023-05-19T11:10:24.364Z,31.77
2023-05-19T11:12:53.844Z,33.07
2023-05-19T11:15:27.583Z,34.61
2023-05-19T11:17:57.205Z,33.36
2023-05-19T11:20:27.704Z,30.29
2023-05-19T11:23:07.472Z,31.29
2023-05-19T11:25:45.630Z,32.52
2023-05-19T11:28:17.409Z,30.73
2023-05-19T11:30:50.459Z,29.11
2023-05-19T11:33:20.689Z,29.08
2023-05-19T11:35:51.263Z,30.05
2023-05-19T11:38:20.937Z,31.62
2023-05-19T11:40:54.501Z,30.42
2023-05-19T11:43:27.794Z,30.46
2023-05-19T11:45:57.359Z,34.09
2023-05-19T11:48:27.852Z,33.02
2023-05-19T11:50:57.039Z,33.95
2023-05-19T11:53:26.169Z,35.45
2023-05-19T11:55:56.653Z,33.38
2023-05-19T11:58:29.835Z,30.64
2023-05-19T12:00:59.228Z,29.74
2023-05-19T12:03:29.788Z,28.02
2023-05-19T12:05:59.201Z,29.10
2023-05-19T12:08:28.357Z,29.21
2023-05-19T12:10:58.988Z,28.06
2023-05-19T12:13:34.511Z,30.60
2023-05-19T12:16:06.954Z,28.26
2023-05-19T12:18:38.704Z,27.24
2023-05-19T12:21:08.053Z,27.67
2023-05-19T12:23:37.158Z,27.49
2023-05-19T12:26:07.581Z,27.91
2023-05-19T12:28:37.410Z,27.13
2023-05-19T12:31:07.106Z,26.22
2023-05-19T12:33:36.157Z,26.28
2023-05-19T12:36:09.138Z,27.54
2023-05-19T12:38:39.776Z,28.27
2023-05-19T12:41:12.622Z,29.76
2023-05-19T12:43:42.472Z,27.45
2023-05-19T12:46:15.462Z,25.67
2023-05-19T12:48:45.171Z,26.85
2023-05-19T12:51:18.942Z,27.04
2023-05-19T12:53:48.517Z,27.42
2023-05-19T12:56:19.008Z,27.65
2023-05-19T12:58:54.532Z,28.19
2023-05-19T13:01:24.426Z,29.92
2023-05-19T13:03:53.990Z,31.01
2023-05-19T13:06:26.103Z,33.41
2023-05-19T13:08:54.991Z,31.14
2023-05-19T13:11:25.255Z,33.83
2023-05-19T13:13:54.242Z,36.88
2023-05-19T13:16:24.028Z,29.40
2023-05-19T13:18:53.589Z,29.87
2023-05-19T13:21:22.613Z,30.94
2023-05-19T13:23:52.459Z,28.82
2023-05-19T13:26:21.610Z,25.73
2023-05-19T13:28:51.991Z,25.75
2023-05-19T13:31:21.203Z,26.15
2023-05-19T13:33:50.369Z,25.27
2023-05-19T13:36:19.372Z,26.83
2023-05-19T13:38:50.665Z,26.84
2023-05-19T13:41:25.154Z,26.93
2023-05-19T13:43:55.638Z,27.31
2023-05-19T13:46:36.368Z,27.71
2023-05-19T13:49:13.363Z,31.04
2023-05-19T13:51:45.016Z,30.65
2023-05-19T13:54:13.957Z,33.68
2023-05-19T13:56:48.697Z,34.68
2023-05-19T13:59:19.014Z,33.71
2023-05-19T14:01:48.254Z,28.89
2023-05-19T14:04:18.980Z,28.95
2023-05-19T14:06:48.471Z,26.05
2023-05-19T14:09:17.550Z,28.05
2023-05-19T14:11:46.856Z,28.38
2023-05-19T14:14:16.543Z,27.65
2023-05-19T14:16:47.140Z,26.33
2023-05-19T14:19:18.654Z,26.23
2023-05-19T14:21:47.498Z,25.50
2023-05-19T14:24:17.175Z,24.84
2023-05-19T14:26:46.625Z,23.94
2023-05-19T14:29:19.991Z,23.17
2023-05-19T14:31:50.608Z,23.33
2023-05-19T14:34:21.222Z,24.26
2023-05-19T14:36:50.252Z,24.07
2023-05-19T14:39:19.631Z,24.32
2023-05-19T14:41:51.305Z,24.99
2023-05-19T14:44:22.952Z,23.48
2023-05-19T14:46:54.544Z,23.76
2023-05-19T14:49:23.819Z,23.40
2023-05-19T14:51:53.161Z,23.48
2023-05-19T14:54:22.307Z,23.18
2023-05-19T14:56:51.867Z,23.15
2023-05-19T14:59:21.760Z,23.47
2023-05-19T15:01:50.930Z,23.31
2023-05-19T15:04:21.548Z,23.51
2023-05-19T15:07:05.941Z,24.03
2023-05-19T15:09:38.613Z,23.36
2023-05-19T15:12:08.832Z,23.31
2023-05-19T15:14:37.872Z,23.31
2023-05-19T15:17:07.037Z,23.17
2023-05-19T15:19:41.083Z,22.80
2023-05-19T15:22:10.311Z,22.54
2023-05-19T15:24:39.277Z,22.60
2023-05-19T15:27:09.203Z,22.48
2023-05-19T15:29:38.886Z,22.62
2023-05-19T15:32:09.785Z,22.75
2023-05-19T15:34:43.273Z,24.68
2023-05-19T15:37:12.361Z,23.65
2023-05-19T15:39:41.858Z,23.75
2023-05-19T15:42:11.441Z,23.56
2023-05-19T15:44:40.477Z,23.26
2023-05-19T15:47:09.807Z,23.60
2023-05-19T15:49:39.243Z,23.35
2023-05-19T15:52:09.816Z,23.36
2023-05-19T15:54:38.735Z,22.88
2023-05-19T15:57:07.763Z,22.66
2023-05-19T15:59:36.833Z,22.97
2023-05-19T16:02:06.346Z,22.42
2023-05-19T16:04:35.815Z,23.19
2023-05-19T16:07:05.746Z,22.68
2023-05-19T16:09:36.120Z,22.35
2023-05-19T16:12:05.985Z,23.17
2023-05-19T16:14:40.340Z,23.00
2023-05-19T16:17:11.799Z,22.50
2023-05-19T16:19:40.778Z,22.72
2023-05-19T16:22:09.803Z,22.64
2023-05-19T16:24:43.016Z,22.58
2023-05-19T16:27:14.268Z,22.21
2023-05-19T16:29:43.521Z,22.12
2023-05-19T16:32:12.947Z,22.19
2023-05-19T16:34:42.434Z,22.29
2023-05-19T16:37:14.347Z,21.98
2023-05-19T16:39:45.152Z,21.96
2023-05-19T16:42:14.370Z,21.77
2023-05-19T16:44:43.553Z,21.98
2023-05-19T16:47:12.640Z,21.69
2023-05-19T16:49:41.855Z,21.79
2023-05-19T16:52:13.483Z,21.62
2023-05-19T16:55:57.282Z,21.93
2023-05-19T16:57:39.913Z,21.28
2023-05-19T17:00:10.463Z,21.72
2023-05-19T17:02:39.908Z,21.65
2023-05-19T17:05:09.907Z,21.61
2023-05-19T17:07:39.212Z,21.58
2023-05-19T17:10:10.980Z,21.60
2023-05-19T17:12:40.013Z,21.39
2023-05-19T17:15:09.801Z,21.32
2023-05-19T17:17:40.239Z,21.03
2023-05-19T17:20:10.618Z,21.13
2023-05-19T17:22:39.805Z,21.21
2023-05-19T17:25:11.346Z,21.02
2023-05-19T17:27:40.657Z,21.03
2023-05-19T17:30:14.460Z,20.67
2023-05-19T17:32:43.678Z,21.01
2023-05-19T17:35:13.026Z,20.94
2023-05-19T17:37:42.072Z,20.84
2023-05-19T17:40:13.678Z,21.01
2023-05-19T17:42:42.692Z,20.76
2023-05-19T17:45:13.079Z,20.88
2023-05-19T17:47:45.287Z,20.91
2023-05-19T17:50:15.155Z,20.80
2023-05-19T17:52:44.974Z,20.56
2023-05-19T17:55:16.501Z,20.61
2023-05-19T17:57:47.356Z,20.75
2023-05-19T18:00:17.069Z,20.60
2023-05-19T18:02:46.829Z,20.46
2023-05-19T18:05:17.296Z,20.55
2023-05-19T18:07:46.966Z,20.51
2023-05-19T18:10:18.430Z,20.55
2023-05-19T18:12:47.426Z,20.15
2023-05-19T18:15:16.918Z,20.47
2023-05-19T18:17:46.446Z,20.48
2023-05-19T18:20:17.298Z,20.44
2023-05-19T18:22:47.069Z,20.35
2023-05-19T18:25:18.635Z,20.32
2023-05-19T18:27:47.746Z,20.25
2023-05-19T18:30:16.807Z,20.13
2023-05-19T18:32:45.936Z,20.23
2023-05-19T18:35:15.303Z,20.18
2023-05-19T18:37:44.319Z,20.12
2023-05-19T18:40:13.437Z,20.24
2023-05-19T18:42:44.192Z,20.00
2023-05-19T18:45:13.907Z,19.82
2023-05-19T18:47:43.322Z,19.98
2023-05-19T18:50:13.229Z,19.88
2023-05-19T18:52:42.270Z,19.91
2023-05-19T18:55:11.640Z,20.07
2023-05-19T18:57:41.968Z,19.96
2023-05-19T19:00:14.789Z,20.03
2023-05-19T19:02:44.198Z,20.03
2023-05-19T19:05:13.988Z,19.91
2023-05-19T19:07:44.753Z,19.87
2023-05-19T19:10:15.242Z,19.85
2023-05-19T19:12:44.421Z,19.76
2023-05-19T19:15:15.472Z,19.62
2023-05-19T19:17:45.778Z,19.54
2023-05-19T19:20:15.222Z,19.41
2023-05-19T19:22:44.549Z,19.75
2023-05-19T19:25:13.692Z,19.78
2023-05-19T19:27:42.792Z,19.77
2023-05-19T19:30:17.356Z,19.70
2023-05-19T19:32:51.816Z,19.81
2023-05-19T19:35:23.288Z,19.72
2023-05-19T19:37:52.961Z,19.68
2023-05-19T19:40:22.060Z,19.46
2023-05-19T19:42:51.144Z,19.75
2023-05-19T19:45:22.101Z,19.68
2023-05-19T19:47:51.913Z,19.66
2023-05-19T19:50:21.215Z,19.57
2023-05-19T19:52:52.903Z,19.49
2023-05-19T19:55:22.176Z,19.55
2023-05-19T19:57:51.403Z,19.49
2023-05-19T20:00:24.801Z,19.48
2023-05-19T20:03:03.674Z,19.22
2023-05-19T20:05:33.976Z,19.44
2023-05-19T20:08:05.756Z,19.17
2023-05-19T20:10:35.159Z,19.33
2023-05-19T20:13:07.810Z,19.33
2023-05-19T20:15:38.313Z,19.32
2023-05-19T20:18:07.363Z,19.13
2023-05-19T20:20:37.110Z,19.28
2023-05-19T20:23:07.737Z,19.16
2023-05-19T20:25:53.726Z,19.11
2023-05-19T20:28:28.165Z,19.16
2023-05-19T20:30:59.134Z,19.08
2023-05-19T20:33:28.329Z,18.93
2023-05-19T20:35:58.164Z,18.82
2023-05-19T20:38:27.340Z,18.89
2023-05-19T20:40:59.600Z,18.87
2023-05-19T20:43:32.048Z,18.91
2023-05-19T20:46:03.886Z,18.84
2023-05-19T20:48:33.227Z,18.77
2023-05-19T20:51:02.784Z,18.89
2023-05-19T20:53:31.816Z,18.84
2023-05-19T20:56:05.265Z,18.77
2023-05-19T20:58:34.151Z,18.82
2023-05-19T21:01:04.668Z,18.67
2023-05-19T21:03:33.813Z,18.69
2023-05-19T21:06:03.270Z,18.67
2023-05-19T21:08:32.496Z,18.66
2023-05-19T21:11:01.790Z,18.71
2023-05-19T21:13:31.774Z,18.61
2023-05-19T21:16:00.900Z,18.72
2023-05-19T21:18:31.400Z,18.64
2023-05-19T21:21:03.737Z,18.65
2023-05-19T21:23:32.961Z,18.64
2023-05-19T21:26:02.148Z,18.44
2023-05-19T21:28:31.410Z,18.51
2023-05-19T21:31:05.483Z,18.50
2023-05-19T21:33:36.059Z,18.59
2023-05-19T21:36:15.716Z,18.52
2023-05-19T21:38:47.561Z,18.53
2023-05-19T21:41:16.677Z,18.60
2023-05-19T21:43:47.909Z,18.62
2023-05-19T21:46:16.977Z,18.71
2023-05-19T21:48:47.397Z,18.62
2023-05-19T21:51:16.659Z,18.55
2023-05-19T21:53:46.146Z,18.62
2023-05-19T21:56:16.427Z,18.54
2023-05-19T21:58:45.555Z,18.86
2023-05-19T22:01:14.729Z,18.80
2023-05-19T22:03:43.705Z,18.61
2023-05-19T22:06:14.223Z,18.64
2023-05-19T22:08:46.052Z,18.50
2023-05-19T22:11:18.041Z,18.48
2023-05-19T22:13:48.833Z,18.32
2023-05-19T22:16:17.847Z,18.43
2023-05-19T22:18:58.214Z,18.67
2023-05-19T22:21:29.278Z,18.73
2023-05-19T22:23:58.407Z,18.68
2023-05-19T22:26:27.448Z,18.68
2023-05-19T22:28:56.816Z,18.76
2023-05-19T22:31:25.936Z,18.62
2023-05-19T22:33:55.335Z,18.79
2023-05-19T22:36:24.828Z,18.57
2023-05-19T22:38:55.245Z,18.51
2023-05-19T22:41:24.238Z,18.52
2023-05-19T22:43:53.169Z,18.43
2023-05-19T22:46:22.233Z,18.40
2023-05-19T22:48:51.254Z,18.25
2023-05-19T22:51:20.343Z,18.31
2023-05-19T22:53:49.593Z,18.17
2023-05-19T22:56:19.921Z,18.06
2023-05-19T22:58:48.935Z,18.07
2023-05-19T23:01:18.913Z,17.91
2023-05-19T23:03:48.229Z,17.24
2023-05-19T23:06:17.378Z,17.35
2023-05-19T23:08:48.474Z,17.68
2023-05-19T23:11:17.420Z,17.66
2023-05-19T23:13:47.758Z,17.75
2023-05-19T23:16:16.846Z,17.83
2023-05-19T23:18:46.400Z,17.61
2023-05-19T23:21:15.336Z,17.67
2023-05-19T23:23:44.399Z,17.61
2023-05-19T23:26:14.360Z,17.47
2023-05-19T23:28:45.355Z,17.50
2023-05-19T23:31:15.762Z,17.61
2023-05-19T23:33:44.906Z,17.65
2023-05-19T23:36:14.689Z,17.70
2023-05-19T23:38:43.816Z,17.60
2023-05-19T23:41:13.011Z,17.52
2023-05-19T23:43:42.051Z,17.42
2023-05-19T23:46:11.326Z,17.45
2023-05-19T23:48:44.059Z,17.38
2023-05-19T23:51:13.344Z,17.47
2023-05-19T23:53:43.230Z,17.46
2023-05-19T23:56:12.521Z,17.37
2023-05-19T23:58:41.428Z,17.35
